Time;durP1;ratioP1;P1;durP2;ratioP2;P2;SDS_P1;SDS_P2;PMS_P1;PMS_P2;Temp;Humidity;BMP_temperature;BMP_pressure;BME280_temperature;BME280_humidity;BME280_pressure;Samples;Min_cycle;Max_cycle;Signal;HPM_P1;HPM_P2
2023/03/20 00:00:33;;;;;;;0.00;0.00;;;;;;;6.70;77.80;100612.59;4985057;28;20038;-78
2023/03/20 00:02:59;;;;;;;0.00;0.00;;;;;;;6.68;76.68;100600.31;5012579;28;20371;-80
2023/03/20 00:05:27;;;;;;;0.00;0.00;;;;;;;6.76;76.88;100611.66;5009569;28;20026;-78
2023/03/20 00:07:52;;;;;;;0.10;0.10;;;;;;;6.76;76.82;100610.78;4982506;28;20065;-80
2023/03/20 00:10:19;;;;;;;0.00;0.00;;;;;;;6.80;76.95;100615.56;4956186;28;20026;-79
2023/03/20 00:12:51;;;;;;;0.00;0.00;;;;;;;6.83;76.73;100606.06;4983298;28;20770;-80
2023/03/20 00:15:22;;;;;;;0.00;0.00;;;;;;;6.90;76.44;100612.22;4986771;28;20108;-78
2023/03/20 00:17:47;;;;;;;0.00;0.00;;;;;;;6.84;76.22;100606.91;5004534;28;20113;-78
2023/03/20 00:20:15;;;;;;;0.00;0.00;;;;;;;6.90;76.08;100611.41;4999999;28;20137;-79
2023/03/20 00:22:40;;;;;;;0.00;0.00;;;;;;;6.88;76.54;100608.91;4975298;28;20030;-78
2023/03/20 00:25:08;;;;;;;0.00;0.00;;;;;;;6.84;76.21;100602.31;4971835;28;20037;-78
2023/03/20 00:27:33;;;;;;;0.00;0.00;;;;;;;6.85;76.20;100589.53;4991826;28;20465;-80
2023/03/20 00:29:59;;;;;;;0.00;0.00;;;;;;;6.82;75.86;100588.13;4976323;28;20041;-77
2023/03/20 00:32:24;;;;;;;0.00;0.00;;;;;;;6.88;76.01;100591.75;4971009;28;20018;-79
2023/03/20 00:34:50;;;;;;;0.00;0.00;;;;;;;6.75;76.25;100571.94;4968304;28;20026;-77
2023/03/20 00:37:15;;;;;;;0.10;0.10;;;;;;;6.79;75.97;100589.41;4976379;28;20069;-80
2023/03/20 00:39:41;;;;;;;0.00;0.00;;;;;;;6.73;76.22;100590.38;4967544;28;20032;-79
2023/03/20 00:42:21;;;;;;;0.00;0.00;;;;;;;6.68;76.89;100587.53;4995751;28;20030;-80
2023/03/20 00:44:52;;;;;;;0.00;0.00;;;;;;;6.61;76.61;100573.22;4996190;28;20045;-79
2023/03/20 00:47:21;;;;;;;0.00;0.00;;;;;;;6.67;76.64;100577.72;4992762;28;20544;-78
2023/03/20 00:49:49;;;;;;;0.00;0.00;;;;;;;6.62;77.13;100564.03;4989629;28;20033;-78
2023/03/20 00:52:16;;;;;;;0.00;0.00;;;;;;;6.68;76.54;100576.66;4976805;28;20540;-81
2023/03/20 00:54:44;;;;;;;0.00;0.00;;;;;;;6.51;76.37;100548.53;4981590;28;20108;-82
2023/03/20 00:57:23;;;;;;;0.00;0.00;;;;;;;6.55;77.60;100576.91;4989985;28;20042;-82
2023/03/20 01:00:19;;;;;;;0.00;0.00;;;;;;;6.55;78.20;100577.72;4981350;28;20840;-84
2023/03/20 01:02:44;;;;;;;0.00;0.00;;;;;;;6.59;78.35;100562.59;4957356;28;20038;-83
2023/03/20 01:05:11;;;;;;;0.00;0.00;;;;;;;6.70;78.16;100574.53;4972153;28;20083;-80
2023/03/20 01:07:38;;;;;;;0.00;0.00;;;;;;;6.78;78.66;100576.88;5006002;28;20022;-78
2023/03/20 01:10:05;;;;;;;0.00;0.00;;;;;;;6.60;78.13;100541.66;4992957;28;20032;-80
2023/03/20 01:12:32;;;;;;;0.00;0.00;;;;;;;6.69;78.01;100559.28;4994025;28;20026;-79
2023/03/20 01:14:58;;;;;;;0.00;0.00;;;;;;;6.62;78.93;100561.31;5012013;28;20029;-78
2023/03/20 01:17:28;;;;;;;0.00;0.00;;;;;;;6.53;78.70;100562.72;4978492;28;20030;-79
2023/03/20 01:19:54;;;;;;;0.00;0.00;;;;;;;6.31;79.79;100555.16;4990119;28;20061;-80
2023/03/20 01:22:19;;;;;;;0.00;0.00;;;;;;;6.28;80.28;100561.88;4963274;28;20036;-82
2023/03/20 01:25:03;;;;;;;0.00;0.00;;;;;;;6.04;79.91;100536.56;4994279;28;20096;-81
2023/03/20 01:27:30;;;;;;;0.00;0.00;;;;;;;6.10;80.74;100554.66;4975744;28;20368;-81
2023/03/20 01:29:56;;;;;;;0.00;0.00;;;;;;;6.07;80.71;100551.56;4994117;28;20026;-82
2023/03/20 01:32:24;;;;;;;0.00;0.00;;;;;;;5.94;81.77;100533.56;4954732;28;20358;-81
2023/03/20 01:34:50;;;;;;;0.00;0.00;;;;;;;5.93;82.31;100542.78;4988666;28;20030;-81
2023/03/20 01:37:28;;;;;;;0.00;0.00;;;;;;;5.93;83.51;100542.78;4999035;28;20088;-81
2023/03/20 01:39:56;;;;;;;0.00;0.00;;;;;;;5.92;83.51;100547.34;4976853;28;20076;-82
2023/03/20 01:42:22;;;;;;;0.00;0.00;;;;;;;5.79;83.50;100541.31;4969115;28;20503;-81
2023/03/20 01:44:47;;;;;;;0.00;0.00;;;;;;;5.84;84.39;100544.16;4985110;28;20026;-81
2023/03/20 01:47:20;;;;;;;0.00;0.00;;;;;;;5.75;84.13;100530.94;4992303;28;20069;-82
2023/03/20 01:50:15;;;;;;;0.00;0.00;;;;;;;5.89;84.22;100547.00;4983419;28;20057;-81
2023/03/20 01:52:41;;;;;;;0.00;0.00;;;;;;;5.71;84.69;100526.16;4988652;28;20490;-81
2023/03/20 01:55:07;;;;;;;0.00;0.00;;;;;;;5.83;85.71;100545.22;4991736;28;20041;-82
2023/03/20 01:57:38;;;;;;;0.00;0.00;;;;;;;5.86;85.87;100533.91;5007852;28;20148;-81
2023/03/20 02:00:15;;;;;;;0.00;0.00;;;;;;;5.99;86.14;100532.91;4983433;28;20018;-79
2023/03/20 02:02:49;;;;;;;0.00;0.00;;;;;;;6.23;85.58;100537.28;4982207;28;20046;-81
2023/03/20 02:05:20;;;;;;;0.10;0.10;;;;;;;6.34;86.22;100522.09;4979895;28;20017;-81
2023/03/20 02:08:04;;;;;;;0.00;0.00;;;;;;;6.47;87.16;100531.91;4991388;28;20029;-81
2023/03/20 02:10:30;;;;;;;0.10;0.10;;;;;;;6.53;87.81;100527.41;4982713;28;20037;-81
2023/03/20 02:12:57;;;;;;;0.00;0.00;;;;;;;6.49;88.51;100512.63;5008479;28;20476;-77
2023/03/20 02:15:26;;;;;;;0.00;0.00;;;;;;;6.53;88.89;100519.25;4992456;28;20056;-77
2023/03/20 02:17:54;;;;;;;0.00;0.00;;;;;;;6.43;89.67;100508.97;5004774;28;20064;-77
2023/03/20 02:20:40;;;;;;;0.00;0.00;;;;;;;6.43;90.87;100509.78;4985184;28;20061;-77
2023/03/20 02:23:24;;;;;;;0.00;0.00;;;;;;;6.44;91.23;100521.50;5000362;28;20042;-77
2023/03/20 02:26:21;;;;;;;0.00;0.00;;;;;;;6.39;92.62;100514.03;4991493;28;20080;-77
2023/03/20 02:28:58;;;;;;;0.03;0.03;;;;;;;6.53;92.31;100530.13;4993707;28;20060;-76
2023/03/20 02:31:40;;;;;;;0.00;0.00;;;;;;;6.45;93.02;100502.25;4999250;28;20056;-75
2023/03/20 02:34:22;;;;;;;0.00;0.00;;;;;;;6.54;93.59;100521.75;5001908;28;20026;-76
2023/03/20 02:37:05;;;;;;;0.00;0.00;;;;;;;6.56;93.46;100524.22;4999082;28;20125;-76
2023/03/20 02:39:55;;;;;;;0.00;0.00;;;;;;;6.62;93.06;100523.25;4991842;28;20014;-76
2023/03/20 02:42:38;;;;;;;0.00;0.00;;;;;;;6.67;93.43;100527.97;4989494;28;20027;-77
2023/03/20 02:45:26;;;;;;;0.03;0.03;;;;;;;6.68;93.63;100511.44;4978353;28;20056;-77
2023/03/20 02:48:12;;;;;;;0.00;0.00;;;;;;;6.66;93.81;100501.84;4986405;28;20129;-77
2023/03/20 02:51:11;;;;;;;0.00;0.00;;;;;;;6.61;93.40;100478.97;4999285;28;20025;-76
2023/03/20 02:53:55;;;;;;;0.00;0.00;;;;;;;6.76;93.51;100486.63;4991247;28;20029;-77
2023/03/20 02:56:36;;;;;;;;;;;;;;;;;;;;;
2023/03/20 02:59:32;;;;;;;0.10;0.10;;;;;;;6.95;94.18;100494.59;5007409;28;20034;-77
2023/03/20 03:02:27;;;;;;;0.00;0.00;;;;;;;6.97;94.43;100497.91;5013271;28;20026;-77
2023/03/20 03:05:03;;;;;;;0.00;0.00;;;;;;;6.94;95.16;100473.94;5007038;28;21731;-77
2023/03/20 03:07:32;;;;;;;0.00;0.00;;;;;;;7.04;95.61;100489.59;4990643;28;20025;-78
2023/03/20 03:10:09;;;;;;;0.00;0.00;;;;;;;7.02;96.02;100473.53;4977090;28;20117;-76
2023/03/20 03:12:46;;;;;;;0.00;0.00;;;;;;;7.05;96.56;100473.06;4997211;28;20054;-78
2023/03/20 03:15:32;;;;;;;0.00;0.00;;;;;;;7.13;97.34;100475.41;4978814;28;20026;-78
2023/03/20 03:17:59;;;;;;;0.00;0.00;;;;;;;7.09;98.69;100478.84;4992012;28;20034;-77
2023/03/20 03:20:31;;;;;;;0.00;0.00;;;;;;;7.07;98.54;100470.13;4986452;28;20059;-77
2023/03/20 03:22:57;;;;;;;0.00;0.00;;;;;;;7.24;99.20;100491.91;5009349;28;20456;-76
2023/03/20 03:25:28;;;;;;;0.00;0.00;;;;;;;7.19;99.33;100472.78;4983711;28;20034;-77
2023/03/20 03:28:08;;;;;;;0.03;0.03;;;;;;;7.26;99.46;100490.63;4977983;28;20130;-77
2023/03/20 03:30:38;;;;;;;0.00;0.00;;;;;;;7.26;99.69;100489.78;4982807;28;20038;-76
2023/03/20 03:33:38;;;;;;;0.00;0.00;;;;;;;7.30;100.00;100490.94;4989436;28;20309;-77
2023/03/20 03:36:13;;;;;;;0.00;0.00;;;;;;;7.28;100.00;100474.03;4946626;28;20065;-77
2023/03/20 03:38:43;;;;;;;0.00;0.00;;;;;;;7.36;100.00;100484.56;4987122;28;20558;-76
2023/03/20 03:41:30;;;;;;;0.00;0.00;;;;;;;7.41;100.00;100473.75;4980683;28;20034;-75
2023/03/20 03:44:38;;;;;;;0.00;0.00;;;;;;;7.40;100.00;100469.38;4983336;28;20033;-76
2023/03/20 03:47:15;;;;;;;0.03;0.03;;;;;;;7.33;100.00;100464.09;4970534;28;20025;-76
2023/03/20 03:49:47;;;;;;;0.00;0.00;;;;;;;7.29;100.00;100462.09;4984594;28;20038;-76
2023/03/20 03:52:18;;;;;;;0.00;0.00;;;;;;;7.30;100.00;100470.03;4987892;28;20037;-76
2023/03/20 03:54:52;;;;;;;0.00;0.00;;;;;;;7.26;100.00;100465.31;4987528;28;21006;-75
2023/03/20 03:57:23;;;;;;;0.10;0.10;;;;;;;7.21;100.00;100465.19;4998681;28;20042;-75
2023/03/20 03:59:51;;;;;;;0.00;0.00;;;;;;;7.18;100.00;100460.25;4985593;28;20054;-75
2023/03/20 04:02:20;;;;;;;0.00;0.00;;;;;;;7.11;100.00;100449.50;4982459;28;20026;-77
2023/03/20 04:04:49;;;;;;;0.00;0.00;;;;;;;7.20;100.00;100458.09;4974698;28;20018;-78
2023/03/20 04:07:15;;;;;;;0.00;0.00;;;;;;;7.09;100.00;100447.03;4985074;28;20034;-77
2023/03/20 04:09:40;;;;;;;0.00;0.00;;;;;;;7.11;100.00;100452.22;4968751;28;20029;-77
2023/03/20 04:12:35;;;;;;;0.00;0.00;;;;;;;7.11;100.00;100442.19;5007182;28;20388;-77
2023/03/20 04:15:01;;;;;;;0.00;0.00;;;;;;;7.23;100.00;100463.91;4987608;28;20026;-77
2023/03/20 04:17:26;;;;;;;0.05;0.05;;;;;;;7.18;100.00;100449.38;5006713;28;20032;-77
2023/03/20 04:20:02;;;;;;;0.00;0.00;;;;;;;7.18;100.00;100454.81;4960246;28;20034;-77
2023/03/20 04:22:28;;;;;;;0.00;0.00;;;;;;;7.21;100.00;100454.31;4974038;28;20049;-76
2023/03/20 04:24:55;;;;;;;0.00;0.00;;;;;;;7.21;100.00;100455.13;4978497;28;20066;-76
2023/03/20 04:27:23;;;;;;;0.00;0.00;;;;;;;7.25;100.00;100452.78;4981660;28;20099;-77
2023/03/20 04:29:51;;;;;;;0.00;0.00;;;;;;;7.19;100.00;100434.72;4964107;28;20031;-76
2023/03/20 04:32:19;;;;;;;0.00;0.00;;;;;;;7.28;100.00;100444.94;4968904;28;20069;-77
2023/03/20 04:34:44;;;;;;;0.00;0.00;;;;;;;7.37;100.00;100447.28;5007526;28;20099;-76
2023/03/20 04:37:10;;;;;;;0.00;0.00;;;;;;;7.38;100.00;100463.34;4986289;28;20069;-78
2023/03/20 04:39:41;;;;;;;0.00;0.00;;;;;;;7.29;100.00;100438.44;4979461;28;20037;-77
2023/03/20 04:42:07;;;;;;;0.00;0.00;;;;;;;7.34;100.00;100432.25;4970084;28;20037;-76
2023/03/20 04:44:40;;;;;;;0.10;0.10;;;;;;;7.40;100.00;100436.72;4987559;28;20060;-76
2023/03/20 04:47:07;;;;;;;0.00;0.00;;;;;;;7.41;100.00;100432.94;4970554;28;20023;-77
2023/03/20 04:49:33;;;;;;;0.00;0.00;;;;;;;7.41;100.00;100432.13;4974472;28;20030;-76
2023/03/20 04:51:58;;;;;;;0.00;0.00;;;;;;;7.55;100.00;100449.78;4993534;28;20030;-76
2023/03/20 04:54:24;;;;;;;0.00;0.00;;;;;;;7.44;100.00;100416.13;4977831;28;20061;-75
2023/03/20 04:56:51;;;;;;;0.00;0.00;;;;;;;7.53;100.00;100419.25;4991424;28;20129;-77
2023/03/20 04:59:17;;;;;;;0.00;0.00;;;;;;;7.58;100.00;100429.41;4974443;28;20104;-76
2023/03/20 05:01:42;;;;;;;0.00;0.00;;;;;;;7.69;100.00;100436.69;4985315;28;20109;-76
2023/03/20 05:04:08;;;;;;;0.00;0.00;;;;;;;7.65;100.00;100422.75;4991710;28;20668;-76
2023/03/20 05:06:48;;;;;;;0.00;0.00;;;;;;;7.72;100.00;100438.91;5004153;28;20034;-76
2023/03/20 05:09:15;;;;;;;0.00;0.00;;;;;;;7.72;100.00;100422.56;4971049;28;20061;-76
2023/03/20 05:11:43;;;;;;;0.00;0.00;;;;;;;7.71;100.00;100420.94;4993124;28;20030;-76
2023/03/20 05:14:10;;;;;;;0.00;0.00;;;;;;;7.80;100.00;100424.91;4984124;28;20058;-76
2023/03/20 05:16:36;;;;;;;0.00;0.00;;;;;;;7.82;100.00;100417.28;4999669;28;20116;-75
2023/03/20 05:19:04;;;;;;;0.00;0.00;;;;;;;7.86;100.00;100413.00;4989473;28;20120;-78
2023/03/20 05:21:29;;;;;;;0.00;0.00;;;;;;;7.96;100.00;100422.44;4985962;28;20081;-77
2023/03/20 05:23:55;;;;;;;0.00;0.00;;;;;;;8.02;100.00;100427.69;4977108;28;20018;-76
2023/03/20 05:26:20;;;;;;;0.00;0.00;;;;;;;7.94;100.00;100409.03;5010399;28;20545;-76
2023/03/20 05:28:46;;;;;;;0.00;0.00;;;;;;;7.95;100.00;100404.44;4984613;28;20018;-76
2023/03/20 05:31:11;;;;;;;0.00;0.00;;;;;;;8.06;100.00;100422.59;4990834;28;20075;-76
2023/03/20 05:33:40;;;;;;;0.00;0.00;;;;;;;8.07;100.00;100417.94;4972222;28;20037;-77
2023/03/20 05:36:06;;;;;;;0.00;0.00;;;;;;;8.09;100.00;100402.16;4991880;28;20029;-76
2023/03/20 05:38:39;;;;;;;0.00;0.00;;;;;;;8.24;100.00;100424.19;5002185;28;20030;-76
2023/03/20 05:41:05;;;;;;;0.00;0.00;;;;;;;8.20;100.00;100410.25;4978217;28;20029;-76
2023/03/20 05:43:30;;;;;;;0.00;0.00;;;;;;;8.23;100.00;100411.63;4991989;28;20030;-75
2023/03/20 05:45:58;;;;;;;0.00;0.00;;;;;;;8.25;100.00;100403.22;4972101;28;20478;-76
2023/03/20 05:48:23;;;;;;;0.00;0.00;;;;;;;8.30;100.00;100406.03;4994643;28;20117;-77
2023/03/20 05:50:49;;;;;;;0.00;0.00;;;;;;;8.35;100.00;100406.09;4985593;28;20109;-77
2023/03/20 05:53:15;;;;;;;0.00;0.00;;;;;;;8.36;100.00;100394.13;4985378;28;20033;-77
2023/03/20 05:55:43;;;;;;;0.10;0.10;;;;;;;8.44;100.00;100410.06;4980510;28;20037;-76
2023/03/20 05:58:10;;;;;;;0.00;0.00;;;;;;;8.45;100.00;100402.72;4983826;28;20058;-77
2023/03/20 06:00:50;;;;;;;0.00;0.00;;;;;;;8.47;100.00;100404.13;4985715;28;20079;-77
2023/03/20 06:03:15;;;;;;;0.00;0.00;;;;;;;8.48;100.00;100397.56;4976253;28;20030;-76
2023/03/20 06:05:43;;;;;;;0.00;0.00;;;;;;;8.48;100.00;100392.13;4981331;28;20026;-77
2023/03/20 06:08:09;;;;;;;0.00;0.00;;;;;;;8.51;100.00;100391.63;4971815;28;20479;-77
2023/03/20 06:10:37;;;;;;;0.00;0.00;;;;;;;8.49;100.00;100388.31;4971864;28;20030;-77
2023/03/20 06:13:05;;;;;;;0.00;0.00;;;;;;;8.52;100.00;100395.97;4984342;28;20022;-76
2023/03/20 06:15:30;;;;;;;0.00;0.00;;;;;;;8.49;100.00;100396.50;4983585;28;20095;-75
2023/03/20 06:17:56;;;;;;;0.00;0.00;;;;;;;8.64;100.00;100405.94;5002555;28;20034;-76
2023/03/20 06:20:36;;;;;;;0.00;0.00;;;;;;;8.61;100.00;100407.28;5010299;28;20487;-75
2023/03/20 06:23:01;;;;;;;0.00;0.00;;;;;;;8.70;100.00;100413.09;4982459;28;20725;-76
2023/03/20 06:25:26;;;;;;;0.00;0.00;;;;;;;8.63;100.00;100407.88;4983962;28;20042;-76
2023/03/20 06:27:52;;;;;;;0.00;0.00;;;;;;;8.75;100.00;100418.63;4987387;28;20042;-76
2023/03/20 06:30:18;;;;;;;0.00;0.00;;;;;;;8.71;100.00;100401.13;4956746;28;20104;-77
2023/03/20 06:32:43;;;;;;;0.00;0.00;;;;;;;8.72;100.00;100405.50;4989723;28;20100;-75
2023/03/20 06:35:12;;;;;;;0.00;0.00;;;;;;;8.81;100.00;100431.25;4984068;28;20089;-75
2023/03/20 06:37:40;;;;;;;0.00;0.00;;;;;;;8.79;100.00;100414.31;4990853;28;20026;-77
2023/03/20 06:40:06;;;;;;;0.00;0.00;;;;;;;8.77;100.00;100400.09;4983502;28;20061;-76
2023/03/20 06:42:32;;;;;;;0.00;0.00;;;;;;;8.79;100.00;100392.50;4977775;28;20030;-77
2023/03/20 06:44:57;;;;;;;0.00;0.00;;;;;;;8.80;100.00;100396.88;4998117;28;20033;-76
2023/03/20 06:47:28;;;;;;;0.00;0.00;;;;;;;8.93;100.00;100413.94;4969853;28;20751;-75
2023/03/20 06:49:53;;;;;;;0.00;0.00;;;;;;;8.88;100.00;100399.16;4966305;28;20045;-74
2023/03/20 06:52:22;;;;;;;0.00;0.00;;;;;;;8.91;100.00;100401.38;4972147;28;20054;-75
2023/03/20 06:54:50;;;;;;;0.00;0.00;;;;;;;9.01;100.00;100405.28;4986356;28;20472;-75
2023/03/20 06:57:17;;;;;;;0.00;0.00;;;;;;;9.05;100.00;100406.41;4986146;28;20046;-74
2023/03/20 06:59:42;;;;;;;0.00;0.00;;;;;;;8.97;100.00;100398.72;4971303;28;20038;-77
2023/03/20 07:02:09;;;;;;;0.00;0.00;;;;;;;9.04;100.00;100421.97;4964353;28;20092;-76
2023/03/20 07:04:35;;;;;;;0.00;0.00;;;;;;;9.02;100.00;100415.13;4983858;28;20428;-75
2023/03/20 07:07:10;;;;;;;0.00;0.00;;;;;;;8.96;100.00;100418.88;4997172;28;20046;-77
2023/03/20 07:09:36;;;;;;;0.00;0.00;;;;;;;8.98;100.00;100409.38;4983076;28;20032;-75
2023/03/20 07:12:03;;;;;;;0.00;0.00;;;;;;;8.99;100.00;100413.72;4997867;28;20057;-75
2023/03/20 07:14:29;;;;;;;0.00;0.00;;;;;;;9.01;100.00;100410.72;4999694;28;20058;-74
2023/03/20 07:16:55;;;;;;;0.00;0.00;;;;;;;9.03;100.00;100405.88;4988091;28;20049;-76
2023/03/20 07:19:24;;;;;;;0.00;0.00;;;;;;;9.10;100.00;100409.22;4983099;28;20098;-78
2023/03/20 07:21:56;;;;;;;0.00;0.00;;;;;;;9.28;100.00;100418.94;4988806;28;20093;-76
2023/03/20 07:24:24;;;;;;;0.00;0.00;;;;;;;9.28;100.00;100416.22;5002135;28;20120;-76
2023/03/20 07:26:55;;;;;;;0.00;0.00;;;;;;;9.29;100.00;100411.56;4974827;28;20069;-76
2023/03/20 07:29:21;;;;;;;0.00;0.00;;;;;;;9.41;100.00;100417.72;4974100;28;20045;-78
2023/03/20 07:31:46;;;;;;;0.00;0.00;;;;;;;9.48;100.00;100426.50;4987032;28;20072;-76
2023/03/20 07:34:16;;;;;;;0.00;0.00;;;;;;;9.46;100.00;100409.53;4971975;28;20148;-75
2023/03/20 07:36:42;;;;;;;0.00;0.00;;;;;;;9.40;100.00;100407.88;4983399;28;20040;-75
2023/03/20 07:39:17;;;;;;;0.00;0.00;;;;;;;9.48;100.00;100431.16;4987734;28;20025;-76
2023/03/20 07:41:45;;;;;;;0.00;0.00;;;;;;;9.36;100.00;100413.03;4986501;28;20091;-75
2023/03/20 07:44:18;;;;;;;0.00;0.00;;;;;;;9.30;100.00;100424.13;4989916;28;20028;-77
2023/03/20 07:46:45;;;;;;;0.00;0.00;;;;;;;9.39;100.00;100431.63;4985598;28;20033;-76
2023/03/20 07:49:12;;;;;;;0.10;0.10;;;;;;;9.38;100.00;100426.41;4987804;28;20101;-77
2023/03/20 07:51:38;;;;;;;0.00;0.00;;;;;;;9.40;100.00;100430.53;5005552;28;20120;-77
2023/03/20 07:54:03;;;;;;;0.00;0.00;;;;;;;9.44;100.00;100430.84;4976479;28;20117;-76
2023/03/20 07:56:29;;;;;;;0.00;0.00;;;;;;;9.49;100.00;100432.78;4979626;28;20054;-76
2023/03/20 07:59:02;;;;;;;0.00;0.00;;;;;;;9.52;100.00;100432.25;4985887;28;20498;-76
2023/03/20 08:01:27;;;;;;;0.00;0.00;;;;;;;9.66;100.00;100454.53;4988968;28;20053;-77
2023/03/20 08:03:53;;;;;;;0.00;0.00;;;;;;;9.69;100.00;100445.81;4975121;28;20062;-76
2023/03/20 08:06:19;;;;;;;0.00;0.00;;;;;;;9.72;100.00;100431.63;4980507;28;20028;-78
2023/03/20 08:08:54;;;;;;;0.00;0.00;;;;;;;9.81;100.00;100435.50;4973142;28;20084;-75
2023/03/20 08:11:19;;;;;;;0.00;0.00;;;;;;;9.87;100.00;100429.03;4992498;28;20053;-76
2023/03/20 08:13:50;;;;;;;0.00;0.00;;;;;;;10.00;100.00;100448.78;4991627;28;20480;-76
2023/03/20 08:16:16;;;;;;;0.00;0.00;;;;;;;9.92;100.00;100431.78;5008999;28;20088;-77
2023/03/20 08:18:52;;;;;;;0.00;0.00;;;;;;;10.02;100.00;100441.16;5009460;28;20033;-76
2023/03/20 08:21:18;;;;;;;0.00;0.00;;;;;;;9.98;100.00;100440.03;5006318;28;20076;-76
2023/03/20 08:23:43;;;;;;;0.00;0.00;;;;;;;9.98;100.00;100434.56;4973155;28;20037;-77
2023/03/20 08:26:11;;;;;;;0.00;0.00;;;;;;;10.12;100.00;100435.78;4990407;28;20030;-76
2023/03/20 08:28:39;;;;;;;0.00;0.00;;;;;;;10.23;100.00;100429.28;4988161;28;20141;-75
2023/03/20 08:31:08;;;;;;;0.00;0.00;;;;;;;10.38;100.00;100425.00;4991700;28;20022;-77
2023/03/20 08:33:55;;;;;;;0.00;0.00;;;;;;;10.56;100.00;100443.72;4975962;28;20040;-77
2023/03/20 08:36:21;;;;;;;0.00;0.00;;;;;;;10.62;100.00;100433.63;5000221;28;20029;-77
2023/03/20 08:38:47;;;;;;;0.00;0.00;;;;;;;10.72;100.00;100443.78;4989565;28;20038;-76
2023/03/20 08:41:13;;;;;;;0.00;0.00;;;;;;;10.62;100.00;100428.97;4972653;28;20057;-76
2023/03/20 08:43:38;;;;;;;0.00;0.00;;;;;;;10.62;100.00;100428.97;4988077;28;20061;-77
2023/03/20 08:46:05;;;;;;;0.00;0.00;;;;;;;10.70;100.00;100440.50;4960786;28;20423;-77
2023/03/20 08:48:31;;;;;;;0.00;0.00;;;;;;;10.71;100.00;100440.22;4991261;28;20021;-77
2023/03/20 08:50:56;;;;;;;0.00;0.00;;;;;;;10.73;100.00;100435.34;4989255;28;20095;-77
2023/03/20 08:53:29;;;;;;;0.00;0.00;;;;;;;10.78;100.00;100420.84;5006584;28;20449;-78
2023/03/20 08:55:55;;;;;;;0.00;0.00;;;;;;;10.92;100.00;100427.47;4984411;28;20037;-77
2023/03/20 08:58:24;;;;;;;0.00;0.00;;;;;;;11.00;100.00;100424.19;4967101;28;20068;-79
2023/03/20 09:00:49;;;;;;;0.00;0.00;;;;;;;11.04;100.00;100432.72;5002523;28;20376;-76
2023/03/20 09:03:18;;;;;;;0.00;0.00;;;;;;;11.02;100.00;100426.66;5001226;28;20033;-77
2023/03/20 09:13:28;;;;;;;0.03;0.03;;;;;;;10.90;100.00;100435.09;4999813;28;20048;-75
2023/03/20 09:23:49;;;;;;;;;;;;;;;;;;;;;
2023/03/20 09:26:37;;;;;;;;;;;;;;;;;;;;;
2023/03/20 10:47:23;;;;;;;0.00;0.00;;;;;;;11.76;95.61;100495.00;4757818;30;20046;-77
2023/03/20 10:50:14;;;;;;;0.00;0.00;;;;;;;11.58;95.77;100463.47;4753215;29;20027;-74
2023/03/20 10:52:41;;;;;;;0.00;0.00;;;;;;;11.58;96.41;100472.53;4836591;29;20051;-74
2023/03/20 10:55:14;;;;;;;0.00;0.00;;;;;;;11.58;96.76;100471.69;4947755;28;20038;-76
2023/03/20 10:57:52;;;;;;;0.00;0.00;;;;;;;11.62;95.83;100483.75;4969151;28;20036;-76
2023/03/20 11:00:25;;;;;;;0.00;0.00;;;;;;;11.66;96.54;100482.94;4972551;28;20061;-77
2023/03/20 11:02:51;;;;;;;0.00;0.00;;;;;;;11.63;95.95;100460.75;4965081;28;20014;-78
2023/03/20 11:05:27;;;;;;;0.00;0.00;;;;;;;11.68;96.20;100467.06;4986814;28;20101;-77
2023/03/20 11:08:05;;;;;;;0.00;0.00;;;;;;;11.78;95.54;100473.63;4983456;28;20112;-77
2023/03/20 11:10:40;;;;;;;0.00;0.00;;;;;;;11.72;95.05;100469.25;4973727;28;20073;-78
2023/03/20 11:13:30;;;;;;;0.00;0.00;;;;;;;11.72;95.68;100472.00;4973739;28;20027;-78
2023/03/20 11:15:56;;;;;;;0.00;0.00;;;;;;;11.88;95.38;100476.38;4978308;28;20034;-77
2023/03/20 11:18:30;;;;;;;0.00;0.00;;;;;;;11.90;94.41;100467.88;4949510;28;20503;-77
2023/03/20 11:20:56;;;;;;;0.00;0.00;;;;;;;11.81;93.22;100465.72;4981747;28;20026;-76
2023/03/20 11:23:31;;;;;;;0.00;0.00;;;;;;;11.60;94.73;100462.13;4965831;28;20030;-77
2023/03/20 11:26:15;;;;;;;0.00;0.00;;;;;;;11.54;96.41;100465.94;4975639;28;20034;-77
2023/03/20 11:28:56;;;;;;;0.10;0.10;;;;;;;11.29;97.49;100459.31;4977448;28;20033;-78
2023/03/20 11:31:39;;;;;;;0.00;0.00;;;;;;;11.17;100.00;100454.09;4963642;28;20033;-78
2023/03/20 11:34:43;;;;;;;0.00;0.00;;;;;;;11.19;100.00;100453.81;4970983;28;20033;-77
2023/03/20 11:37:28;;;;;;;0.00;0.00;;;;;;;11.27;100.00;100442.34;4932387;28;20042;-77
2023/03/20 11:40:12;;;;;;;;;;;;;;;11.51;100.00;100452.78;4968092;28;20755;-75
2023/03/20 11:42:51;;;;;;;0.00;0.00;;;;;;;11.68;100.00;100456.09;4969415;28;19921;-74
2023/03/20 11:45:27;;;;;;;0.00;0.00;;;;;;;11.66;100.00;100447.31;4980879;28;20026;-77
2023/03/20 11:47:55;;;;;;;0.00;0.00;;;;;;;11.55;100.00;100448.44;4984649;28;20114;-76
2023/03/20 11:50:33;;;;;;;0.00;0.00;;;;;;;11.52;100.00;100452.53;4971218;28;20030;-76
2023/03/20 11:53:16;;;;;;;0.00;0.00;;;;;;;11.44;100.00;100449.50;4985540;28;20030;-74
2023/03/20 11:55:59;;;;;;;0.00;0.00;;;;;;;11.29;100.00;100436.59;4973451;28;20028;-73
2023/03/20 11:58:24;;;;;;;0.00;0.00;;;;;;;11.22;100.00;100436.03;4958783;28;20034;-76
2023/03/20 12:00:54;;;;;;;0.00;0.00;;;;;;;11.27;100.00;100441.50;4954144;28;20130;-76
2023/03/20 12:04:04;;;;;;;0.00;0.00;;;;;;;11.31;100.00;100451.66;4974274;28;20061;-76
2023/03/20 12:06:50;;;;;;;0.00;0.00;;;;;;;11.39;100.00;100453.06;4953008;28;20760;-76
2023/03/20 12:09:28;;;;;;;0.00;0.00;;;;;;;11.49;100.00;100457.69;4969741;28;20041;-74
2023/03/20 12:12:06;;;;;;;0.00;0.00;;;;;;;11.41;100.00;100444.56;4981690;28;20033;-76
2023/03/20 12:14:53;;;;;;;0.00;0.00;;;;;;;11.61;100.00;100444.59;5000577;28;20080;-76
2023/03/20 12:17:46;;;;;;;0.00;0.00;;;;;;;11.74;100.00;100445.13;4986155;28;20045;-79
2023/03/20 12:20:30;;;;;;;0.00;0.00;;;;;;;11.61;100.00;100439.13;4982152;28;20092;-76
2023/03/20 12:23:01;;;;;;;0.00;0.00;;;;;;;11.52;100.00;100446.19;4998611;28;20029;-76
2023/03/20 12:25:37;;;;;;;0.00;0.00;;;;;;;11.49;100.00;100444.84;4992570;28;20033;-75
2023/03/20 12:28:12;;;;;;;0.00;0.00;;;;;;;11.44;100.00;100438.53;5002209;28;20056;-72
2023/03/20 12:31:01;;;;;;;0.00;0.00;;;;;;;11.28;100.00;100433.03;5000200;28;20140;-74
2023/03/20 12:33:39;;;;;;;0.00;0.00;;;;;;;11.23;100.00;100432.19;4954821;28;20095;-74
2023/03/20 12:36:17;;;;;;;0.00;0.00;;;;;;;11.13;100.00;100427.53;4998179;28;20165;-73
2023/03/20 12:38:46;;;;;;;0.00;0.00;;;;;;;11.11;100.00;100426.97;4980044;28;20022;-73
2023/03/20 12:41:24;;;;;;;0.00;0.00;;;;;;;11.13;100.00;100414.66;5002419;28;20038;-74
2023/03/20 12:44:36;;;;;;;0.00;0.00;;;;;;;11.28;100.00;100424.81;4981526;28;20021;-74
2023/03/20 12:47:35;;;;;;;0.00;0.00;;;;;;;11.27;100.00;100428.66;4921567;29;20447;-74
2023/03/20 12:50:20;;;;;;;0.00;0.00;;;;;;;11.25;100.00;100422.63;4901063;29;20134;-75
2023/03/20 12:53:22;;;;;;;0.00;0.00;;;;;;;11.32;100.00;100416.91;4971483;28;20241;-76
2023/03/20 12:56:21;;;;;;;0.00;0.00;;;;;;;11.40;100.00;100421.00;4984738;28;20041;-75
2023/03/20 12:59:28;;;;;;;0.00;0.00;;;;;;;11.50;99.87;100418.28;4993807;28;20018;-75
2023/03/20 13:06:07;;;;;;;0.00;0.00;;;;;;;11.56;98.10;100392.53;4940219;28;20033;-74
2023/03/20 13:11:33;;;;;;;0.00;0.00;;;;;;;11.68;97.06;100376.66;4993400;28;20069;-74
2023/03/20 13:14:09;;;;;;;0.00;0.00;;;;;;;11.76;97.35;100385.44;4986299;28;20025;-72
2023/03/20 13:17:11;;;;;;;0.00;0.00;;;;;;;11.85;97.90;100395.53;4985028;28;20033;-75
2023/03/20 13:20:01;;;;;;;0.00;0.00;;;;;;;11.99;98.32;100409.53;4988980;28;20026;-73
2023/03/20 13:22:52;;;;;;;;;;;;;;;;;;;;;
2023/03/20 13:25:53;;;;;;;0.00;0.00;;;;;;;12.16;97.20;100400.19;4998384;28;20021;-74
2023/03/20 13:28:36;;;;;;;0.00;0.00;;;;;;;11.94;96.38;100404.06;5000759;28;20026;-74
2023/03/20 13:31:15;;;;;;;0.00;0.00;;;;;;;11.84;97.73;100390.34;4995470;28;20025;-75
2023/03/20 13:34:08;;;;;;;0.00;0.00;;;;;;;11.66;98.67;100381.59;4988944;28;20022;-73
2023/03/20 13:37:24;;;;;;;0.00;0.00;;;;;;;11.43;99.68;100388.41;4995038;28;20084;-74
2023/03/20 13:40:12;;;;;;;0.00;0.00;;;;;;;11.37;100.00;100395.00;5001779;28;20104;-75